createdAt,value
2023-02-02T00:01:35.364Z,67.33
2023-02-02T00:04:02.090Z,67.86
2023-02-02T00:06:30.289Z,68.39
2023-02-02T00:09:01.771Z,68.18
2023-02-02T00:11:28.587Z,67.58
2023-02-02T00:13:55.156Z,68.62
2023-02-02T00:16:27.524Z,68.81
2023-02-02T00:19:02.402Z,68.81
2023-02-02T00:21:29.185Z,69.10
2023-02-02T00:23:56.152Z,69.12
2023-02-02T00:26:22.834Z,68.91
2023-02-02T00:28:49.437Z,68.67
2023-02-02T00:31:16.145Z,68.32
2023-02-02T00:33:49.701Z,67.71
2023-02-02T00:36:17.584Z,67.45
2023-02-02T00:38:44.219Z,67.03
2023-02-02T00:41:11.812Z,67.75
2023-02-02T00:43:38.340Z,67.46
2023-02-02T00:46:05.778Z,66.84
2023-02-02T00:48:32.512Z,67.18
2023-02-02T00:51:04.145Z,67.44
2023-02-02T00:53:33.508Z,67.02
2023-02-02T00:56:02.998Z,67.20
2023-02-02T00:58:29.485Z,66.44
2023-02-02T01:00:56.775Z,66.13
2023-02-02T01:03:23.347Z,66.33
2023-02-02T01:05:52.999Z,66.30
2023-02-02T01:08:22.000Z,65.83
2023-02-02T01:10:48.561Z,65.76
2023-02-02T01:13:15.157Z,66.45
2023-02-02T01:15:41.714Z,66.03
2023-02-02T01:18:08.237Z,65.45
2023-02-02T01:20:34.965Z,64.97
2023-02-02T01:23:01.545Z,65.18
2023-02-02T01:25:28.140Z,64.64
2023-02-02T01:27:54.711Z,64.84
2023-02-02T01:30:25.795Z,64.58
2023-02-02T01:32:52.282Z,64.67
2023-02-02T01:35:21.920Z,64.56
2023-02-02T01:37:52.730Z,63.49
2023-02-02T01:40:19.489Z,63.39
2023-02-02T01:42:47.160Z,63.71
2023-02-02T01:45:20.248Z,64.11
2023-02-02T01:47:52.242Z,64.64
2023-02-02T01:50:21.765Z,64.30
2023-02-02T01:52:51.713Z,64.75
2023-02-02T01:55:24.643Z,64.65
2023-02-02T01:58:11.569Z,65.33
2023-02-02T02:00:41.299Z,65.14
2023-02-02T02:03:12.560Z,64.70
2023-02-02T02:05:44.564Z,64.71
2023-02-02T02:08:22.074Z,64.57
2023-02-02T02:10:51.486Z,64.23
2023-02-02T02:13:20.768Z,64.09
2023-02-02T02:16:18.763Z,64.62
2023-02-02T02:18:47.933Z,64.90
2023-02-02T02:22:24.178Z,64.45
2023-02-02T02:25:24.698Z,64.70
2023-02-02T02:28:26.760Z,64.79
2023-02-02T02:31:09.575Z,64.56
2023-02-02T02:33:47.093Z,63.55
2023-02-02T02:36:49.177Z,63.27
2023-02-02T02:39:36.475Z,62.56
2023-02-02T02:42:28.594Z,62.36
2023-02-02T02:44:58.456Z,62.42
2023-02-02T02:47:25.892Z,62.47
2023-02-02T02:49:52.499Z,62.45
2023-02-02T02:52:19.045Z,62.15
2023-02-02T02:54:53.219Z,62.43
2023-02-02T02:57:49.171Z,62.52
2023-02-02T03:00:24.541Z,62.76
2023-02-02T03:03:14.310Z,62.74
2023-02-02T03:06:02.240Z,62.60
2023-02-02T03:08:50.524Z,63.19
2023-02-02T03:11:18.000Z,63.66
2023-02-02T03:13:44.725Z,63.41
2023-02-02T03:16:11.948Z,63.67
2023-02-02T03:18:39.353Z,63.33
2023-02-02T03:21:06.033Z,63.59
2023-02-02T03:23:32.564Z,63.57
2023-02-02T03:25:59.820Z,63.44
2023-02-02T03:28:28.213Z,63.43
2023-02-02T03:30:55.863Z,63.58
2023-02-02T03:33:25.178Z,63.38
2023-02-02T03:35:51.761Z,63.71
2023-02-02T03:38:18.420Z,63.86
2023-02-02T03:40:44.924Z,64.14
2023-02-02T03:43:13.774Z,63.68
2023-02-02T03:45:40.866Z,64.29
2023-02-02T03:48:09.954Z,65.57
2023-02-02T03:50:37.449Z,64.34
2023-02-02T03:53:05.023Z,64.53
2023-02-02T03:55:37.084Z,65.21
2023-02-02T03:58:03.620Z,65.04
2023-02-02T04:00:30.145Z,65.67
2023-02-02T04:02:56.855Z,64.97
2023-02-02T04:05:24.854Z,65.11
2023-02-02T04:07:51.601Z,65.30
2023-02-02T04:10:18.764Z,65.23
2023-02-02T04:12:45.245Z,65.66
2023-02-02T04:15:12.797Z,64.62
2023-02-02T04:17:39.344Z,64.77
2023-02-02T04:20:06.348Z,65.80
2023-02-02T04:22:33.553Z,66.32
2023-02-02T04:25:00.133Z,66.98
2023-02-02T04:27:28.941Z,67.42
2023-02-02T04:29:58.506Z,68.20
2023-02-02T04:32:25.147Z,69.13
2023-02-02T04:34:54.443Z,69.03
2023-02-02T04:37:20.920Z,68.38
2023-02-02T04:39:48.634Z,68.17
2023-02-02T04:42:15.143Z,68.45
2023-02-02T04:44:41.701Z,69.20
2023-02-02T04:47:08.246Z,69.14
2023-02-02T04:49:36.837Z,69.17
2023-02-02T04:52:05.620Z,69.36
2023-02-02T04:54:33.040Z,69.56
2023-02-02T04:57:04.116Z,70.08
2023-02-02T04:59:33.805Z,69.91
2023-02-02T05:02:01.565Z,70.35
2023-02-02T05:04:30.205Z,69.89
2023-02-02T05:06:56.749Z,69.96
2023-02-02T05:09:26.002Z,70.08
2023-02-02T05:11:55.224Z,70.22
2023-02-02T05:14:21.836Z,70.29
2023-02-02T05:16:50.068Z,70.12
2023-02-02T05:19:17.063Z,70.37
2023-02-02T05:21:44.932Z,69.88
2023-02-02T05:24:12.645Z,69.70
2023-02-02T05:26:39.284Z,69.14
2023-02-02T05:29:06.790Z,69.03
2023-02-02T05:31:33.640Z,68.93
2023-02-02T05:34:00.560Z,68.70
2023-02-02T05:36:27.920Z,68.25
2023-02-02T05:38:54.450Z,68.37
2023-02-02T05:41:20.950Z,67.77
2023-02-02T05:43:50.590Z,68.03
2023-02-02T05:46:17.130Z,67.73
2023-02-02T05:48:43.696Z,67.61
2023-02-02T05:51:15.035Z,67.90
2023-02-02T05:53:41.684Z,67.87
2023-02-02T05:56:08.241Z,67.64
2023-02-02T05:58:34.844Z,67.36
2023-02-02T06:01:01.353Z,67.94
2023-02-02T06:03:30.707Z,67.81
2023-02-02T06:05:57.282Z,67.79
2023-02-02T06:08:23.906Z,67.34
2023-02-02T06:10:50.454Z,67.08
2023-02-02T06:13:17.098Z,67.48
2023-02-02T06:15:43.783Z,66.62
2023-02-02T06:18:10.496Z,66.91
2023-02-02T06:20:37.426Z,66.58
2023-02-02T06:23:04.681Z,65.12
2023-02-02T06:25:31.346Z,65.51
2023-02-02T06:27:59.426Z,65.42
2023-02-02T06:30:27.113Z,65.90
2023-02-02T06:32:53.855Z,64.77
2023-02-02T06:35:20.583Z,64.40
2023-02-02T06:37:47.164Z,64.39
2023-02-02T06:40:13.847Z,65.00
2023-02-02T06:42:40.957Z,65.04
2023-02-02T06:45:08.026Z,64.56
2023-02-02T06:47:34.567Z,64.75
2023-02-02T06:50:01.124Z,64.80
2023-02-02T06:52:27.749Z,65.22
2023-02-02T06:54:54.310Z,65.09
2023-02-02T06:57:20.925Z,65.34
2023-02-02T06:59:47.687Z,65.66
2023-02-02T07:02:14.417Z,65.80
2023-02-02T07:04:43.887Z,64.98
2023-02-02T07:07:13.591Z,65.05
2023-02-02T07:09:40.389Z,65.36
2023-02-02T07:12:06.972Z,65.58
2023-02-02T07:14:33.516Z,64.13
2023-02-02T07:16:59.988Z,64.43
2023-02-02T07:19:26.643Z,63.87
2023-02-02T07:21:55.556Z,64.61
2023-02-02T07:24:22.105Z,65.00
2023-02-02T07:26:48.742Z,64.10
2023-02-02T07:29:15.331Z,64.23
2023-02-02T07:31:42.117Z,63.64
2023-02-02T07:34:08.745Z,63.98
2023-02-02T07:36:35.453Z,63.94
2023-02-02T07:39:04.887Z,63.76
2023-02-02T07:41:33.405Z,63.29
2023-02-02T07:43:59.960Z,63.29
2023-02-02T07:46:26.510Z,63.98
2023-02-02T07:48:57.515Z,63.41
2023-02-02T07:51:25.451Z,62.78
2023-02-02T07:53:53.741Z,62.89
2023-02-02T07:56:23.517Z,63.12
2023-02-02T07:58:53.013Z,62.58
2023-02-02T08:01:22.850Z,62.45
2023-02-02T08:03:50.636Z,62.24
2023-02-02T08:06:25.059Z,62.25
2023-02-02T08:08:53.236Z,63.16
2023-02-02T08:11:22.109Z,64.02
2023-02-02T08:13:50.597Z,63.99
2023-02-02T08:16:17.676Z,63.18
2023-02-02T08:18:44.268Z,63.44
2023-02-02T08:21:11.667Z,64.09
2023-02-02T08:23:40.266Z,63.90
2023-02-02T08:26:11.261Z,63.65
2023-02-02T08:28:39.151Z,63.52
2023-02-02T08:31:27.213Z,62.81
2023-02-02T08:33:54.985Z,63.01
2023-02-02T08:36:23.436Z,62.55
2023-02-02T08:38:50.616Z,62.76
2023-02-02T08:41:20.319Z,63.10
2023-02-02T08:43:47.269Z,63.18
2023-02-02T08:46:16.083Z,62.40
2023-02-02T08:48:43.196Z,61.61
2023-02-02T08:51:15.218Z,62.36
2023-02-02T08:53:42.669Z,61.04
2023-02-02T08:56:18.479Z,61.32
2023-02-02T08:58:58.785Z,61.92
2023-02-02T09:01:30.402Z,61.89
2023-02-02T09:04:08.217Z,61.19
2023-02-02T09:06:39.547Z,61.19
2023-02-02T09:09:10.282Z,59.52
2023-02-02T09:11:37.862Z,60.43
2023-02-02T09:14:06.586Z,60.34
2023-02-02T09:16:35.009Z,60.42
2023-02-02T09:19:01.709Z,60.69
2023-02-02T09:21:28.324Z,61.01
2023-02-02T09:23:54.878Z,60.56
2023-02-02T09:26:24.167Z,61.60
2023-02-02T09:28:54.447Z,61.84
2023-02-02T09:31:21.874Z,60.96
2023-02-02T09:33:48.895Z,60.83
2023-02-02T09:36:18.247Z,60.83
2023-02-02T09:38:44.953Z,60.43
2023-02-02T09:41:11.625Z,60.69
2023-02-02T09:44:19.829Z,59.29
2023-02-02T09:47:20.071Z,58.80
2023-02-02T09:49:55.683Z,57.68
2023-02-02T09:52:28.629Z,57.52
2023-02-02T09:55:00.870Z,58.96
2023-02-02T09:57:36.912Z,57.04
2023-02-02T10:00:16.191Z,57.93
2023-02-02T10:02:46.111Z,57.50
2023-02-02T10:05:22.253Z,55.38
2023-02-02T10:07:53.761Z,55.28
2023-02-02T10:10:33.488Z,55.54
2023-02-02T10:13:09.390Z,57.02
2023-02-02T10:15:51.259Z,55.47
2023-02-02T10:18:46.824Z,55.76
2023-02-02T10:21:25.965Z,57.36
2023-02-02T10:23:54.669Z,56.33
2023-02-02T10:26:51.939Z,55.57
2023-02-02T10:29:48.110Z,56.00
2023-02-02T10:32:23.804Z,55.72
2023-02-02T10:35:13.073Z,55.63
2023-02-02T10:38:11.282Z,55.44
2023-02-02T10:40:43.930Z,55.10
2023-02-02T10:43:47.365Z,56.17
2023-02-02T10:46:31.992Z,55.76
2023-02-02T10:49:21.953Z,55.85
2023-02-02T10:51:55.729Z,56.46
2023-02-02T10:55:10.035Z,55.50
2023-02-02T10:57:54.710Z,56.28
2023-02-02T11:00:26.556Z,55.61
2023-02-02T11:02:53.860Z,55.68
2023-02-02T11:05:44.982Z,56.07
2023-02-02T11:08:14.590Z,56.97
2023-02-02T11:10:42.637Z,55.89
2023-02-02T11:13:16.079Z,55.31
2023-02-02T11:15:42.850Z,55.80
2023-02-02T11:18:27.115Z,56.68
2023-02-02T11:20:54.011Z,55.83
2023-02-02T11:23:21.355Z,55.73
2023-02-02T11:25:59.013Z,55.88
2023-02-02T11:28:30.310Z,55.24
2023-02-02T11:30:57.777Z,54.91
2023-02-02T11:33:34.875Z,55.29
2023-02-02T11:36:18.042Z,55.18
2023-02-02T11:38:44.600Z,55.28
2023-02-02T11:41:13.833Z,54.92
2023-02-02T11:43:47.780Z,54.78
2023-02-02T11:46:25.886Z,54.74
2023-02-02T11:49:08.536Z,54.94
2023-02-02T11:51:35.232Z,54.82
2023-02-02T11:54:23.319Z,54.24
2023-02-02T11:56:54.109Z,55.57
2023-02-02T11:59:35.080Z,54.22
2023-02-02T12:02:19.640Z,54.91
2023-02-02T12:04:48.162Z,54.89
2023-02-02T12:07:27.803Z,55.00
2023-02-02T12:09:59.507Z,54.01
2023-02-02T12:12:33.681Z,54.39
2023-02-02T12:15:19.945Z,54.11
2023-02-02T12:17:48.494Z,54.18
2023-02-02T12:20:34.862Z,54.44
2023-02-02T12:23:25.359Z,53.82
2023-02-02T12:26:08.907Z,53.95
2023-02-02T12:28:53.865Z,53.68
2023-02-02T12:31:38.253Z,54.29
2023-02-02T12:34:15.847Z,53.86
2023-02-02T12:36:51.425Z,55.64
2023-02-02T12:39:23.640Z,53.64
2023-02-02T12:41:58.888Z,53.72
2023-02-02T12:44:50.970Z,54.39
2023-02-02T12:47:30.226Z,53.13
2023-02-02T12:50:14.989Z,53.44
2023-02-02T12:52:59.103Z,53.68
2023-02-02T12:55:34.625Z,54.62
2023-02-02T12:58:12.624Z,54.17
2023-02-02T13:01:16.686Z,54.71
2023-02-02T13:07:27.171Z,55.36
2023-02-02T13:10:15.221Z,54.98
2023-02-02T13:12:48.140Z,54.99
2023-02-02T13:15:23.894Z,55.36
2023-02-02T13:17:59.416Z,55.38
2023-02-02T13:20:43.889Z,55.69
2023-02-02T13:23:34.027Z,55.46
2023-02-02T13:26:06.829Z,55.64
2023-02-02T13:28:43.316Z,55.07
2023-02-02T13:31:29.248Z,54.73
2023-02-02T13:34:21.713Z,54.82
2023-02-02T13:37:04.402Z,54.71
2023-02-02T13:39:38.447Z,54.84
2023-02-02T13:42:16.924Z,54.94
2023-02-02T13:44:49.781Z,54.98
2023-02-02T13:47:34.544Z,55.18
2023-02-02T13:50:07.371Z,55.39
2023-02-02T13:52:48.799Z,55.77
2023-02-02T13:56:01.949Z,55.31
2023-02-02T13:58:55.310Z,55.48
2023-02-02T14:01:23.830Z,55.31
2023-02-02T14:03:55.925Z,55.66
2023-02-02T14:06:27.785Z,55.40
2023-02-02T14:08:57.516Z,55.35
2023-02-02T14:11:35.708Z,55.25
2023-02-02T14:14:33.429Z,56.97
2023-02-02T14:17:06.955Z,62.52
2023-02-02T14:19:33.428Z,65.17
2023-02-02T14:22:18.781Z,65.99
2023-02-02T14:24:50.024Z,65.55
2023-02-02T14:27:16.585Z,64.96
2023-02-02T14:29:46.934Z,63.74
2023-02-02T14:32:29.121Z,64.38
2023-02-02T14:35:08.950Z,64.20
2023-02-02T14:37:53.681Z,63.77
2023-02-02T14:40:26.489Z,64.61
2023-02-02T14:43:36.900Z,62.70
2023-02-02T14:46:15.456Z,60.62
2023-02-02T14:49:07.024Z,60.90
2023-02-02T14:51:46.043Z,60.64
2023-02-02T14:54:22.012Z,60.36
2023-02-02T14:56:52.998Z,60.45
2023-02-02T14:59:28.083Z,59.79
2023-02-02T15:02:30.446Z,59.71
2023-02-02T15:05:34.112Z,59.00
2023-02-02T15:08:24.549Z,58.19
2023-02-02T15:10:54.082Z,59.55
2023-02-02T15:13:37.672Z,59.42
2023-02-02T15:16:14.498Z,59.74
2023-02-02T15:18:45.551Z,60.07
2023-02-02T15:21:17.335Z,59.92
2023-02-02T15:23:46.422Z,59.66
2023-02-02T15:26:24.974Z,60.38
2023-02-02T15:28:54.478Z,60.18
2023-02-02T15:31:29.562Z,60.32
2023-02-02T15:34:01.130Z,60.76
2023-02-02T15:36:32.686Z,60.87
2023-02-02T15:39:04.658Z,61.57
2023-02-02T15:41:42.568Z,61.99
2023-02-02T15:44:20.091Z,62.01
2023-02-02T15:46:47.209Z,63.06
2023-02-02T15:49:36.020Z,63.76
2023-02-02T15:52:21.608Z,63.88
2023-02-02T15:54:51.764Z,64.06
2023-02-02T15:57:35.196Z,64.18
2023-02-02T16:00:30.301Z,64.45
2023-02-02T16:03:18.850Z,64.53
2023-02-02T16:05:49.734Z,64.52
2023-02-02T16:08:42.674Z,64.66
2023-02-02T16:11:17.776Z,64.57
2023-02-02T16:13:53.631Z,64.83
2023-02-02T16:16:26.580Z,64.81
2023-02-02T16:19:03.504Z,64.79
2023-02-02T16:21:30.905Z,64.74
2023-02-02T16:23:58.408Z,64.94
2023-02-02T16:26:29.025Z,65.07
2023-02-02T16:28:56.397Z,65.19
2023-02-02T16:31:23.158Z,65.03
2023-02-02T16:33:49.889Z,65.25
2023-02-02T16:36:24.506Z,65.29
2023-02-02T16:38:52.822Z,65.09
2023-02-02T16:41:29.995Z,65.01
2023-02-02T16:43:56.596Z,65.27
2023-02-02T16:46:44.229Z,65.50
2023-02-02T16:49:24.589Z,65.71
2023-02-02T16:52:13.528Z,65.71
2023-02-02T16:54:51.603Z,66.21
2023-02-02T16:57:31.176Z,65.72
2023-02-02T17:00:02.509Z,65.95
2023-02-02T17:02:32.007Z,65.47
2023-02-02T17:05:19.149Z,65.53
2023-02-02T17:07:58.470Z,65.28
2023-02-02T17:10:37.465Z,65.47
2023-02-02T17:13:33.467Z,65.47
2023-02-02T17:16:00.658Z,65.83
2023-02-02T17:18:28.506Z,65.38
2023-02-02T17:20:57.870Z,65.50
2023-02-02T17:23:27.281Z,65.51
2023-02-02T17:25:54.776Z,65.51
2023-02-02T17:28:23.955Z,65.53
2023-02-02T17:31:04.219Z,65.31
2023-02-02T17:33:34.336Z,65.50
2023-02-02T17:36:01.061Z,65.45
2023-02-02T17:38:28.300Z,65.37
2023-02-02T17:41:00.858Z,65.44
2023-02-02T17:43:28.147Z,67.00
2023-02-02T17:45:54.709Z,65.57
2023-02-02T17:48:21.312Z,65.94
2023-02-02T17:50:48.079Z,65.42
2023-02-02T17:53:16.930Z,64.44
2023-02-02T17:55:45.084Z,64.63
2023-02-02T17:58:15.023Z,64.52
2023-02-02T18:00:42.277Z,64.50
2023-02-02T18:03:11.848Z,64.34
2023-02-02T18:05:38.694Z,64.27
2023-02-02T18:08:06.346Z,64.40
2023-02-02T18:10:33.545Z,64.87
2023-02-02T18:13:00.033Z,65.22
2023-02-02T18:15:26.830Z,65.22
2023-02-02T18:17:53.515Z,65.50
2023-02-02T18:20:20.599Z,65.49
2023-02-02T18:22:49.740Z,65.63
2023-02-02T18:25:16.315Z,64.84
2023-02-02T18:27:44.805Z,65.09
2023-02-02T18:30:12.018Z,65.22
2023-02-02T18:32:40.209Z,65.19
2023-02-02T18:35:08.384Z,65.33
2023-02-02T18:37:35.888Z,65.06
2023-02-02T18:40:03.083Z,65.15
2023-02-02T18:42:32.197Z,65.33
2023-02-02T18:44:59.925Z,65.32
2023-02-02T18:47:27.524Z,65.45
2023-02-02T18:49:54.531Z,65.91
2023-02-02T18:52:21.054Z,65.85
2023-02-02T18:54:48.147Z,66.49
2023-02-02T18:57:15.549Z,66.61
2023-02-02T18:59:43.144Z,66.60
2023-02-02T19:02:14.716Z,67.09
2023-02-02T19:05:01.784Z,67.09
2023-02-02T19:07:46.909Z,67.62
2023-02-02T19:10:13.585Z,67.90
2023-02-02T19:12:40.220Z,67.84
2023-02-02T19:15:12.459Z,67.88
2023-02-02T19:17:39.887Z,68.21
2023-02-02T19:20:24.062Z,68.42
2023-02-02T19:23:00.381Z,68.75
2023-02-02T19:25:27.284Z,68.69
2023-02-02T19:27:54.114Z,68.81
2023-02-02T19:30:22.947Z,68.69
2023-02-02T19:32:49.794Z,69.04
2023-02-02T19:35:26.874Z,69.47
2023-02-02T19:38:02.417Z,69.57
2023-02-02T19:40:29.211Z,69.06
2023-02-02T19:43:03.818Z,68.85
2023-02-02T19:45:33.294Z,68.66
2023-02-02T19:48:15.241Z,68.59
2023-02-02T19:50:41.913Z,68.29
2023-02-02T19:53:14.168Z,67.99
2023-02-02T19:55:41.643Z,68.29
2023-02-02T19:58:28.693Z,68.16
2023-02-02T20:00:57.941Z,67.75
2023-02-02T20:03:28.791Z,68.10
2023-02-02T20:05:57.076Z,67.59
2023-02-02T20:08:55.993Z,67.95
2023-02-02T20:11:39.530Z,68.06
2023-02-02T20:14:30.142Z,68.07
2023-02-02T20:17:11.977Z,67.00
2023-02-02T20:19:44.270Z,65.99
2023-02-02T20:22:25.477Z,66.29
2023-02-02T20:24:52.221Z,65.88
2023-02-02T20:27:25.257Z,64.12
2023-02-02T20:29:54.081Z,63.22
2023-02-02T20:32:49.328Z,63.16
2023-02-02T20:35:41.733Z,63.40
2023-02-02T20:38:31.993Z,63.09
2023-02-02T20:40:59.216Z,63.22
2023-02-02T20:43:25.748Z,63.08
2023-02-02T20:45:52.327Z,63.61
2023-02-02T20:48:18.986Z,63.66
2023-02-02T20:50:46.916Z,64.50
2023-02-02T20:53:16.437Z,65.00
2023-02-02T20:55:44.651Z,63.54
2023-02-02T20:58:11.659Z,62.26
2023-02-02T21:00:39.039Z,59.10
2023-02-02T21:03:05.563Z,57.84
2023-02-02T21:05:32.265Z,56.02
2023-02-02T21:07:58.760Z,54.13
2023-02-02T21:10:26.565Z,54.31
2023-02-02T21:12:53.328Z,53.67
2023-02-02T21:15:19.829Z,53.12
2023-02-02T21:17:46.464Z,53.70
2023-02-02T21:20:14.866Z,52.57
2023-02-02T21:22:41.800Z,53.31
2023-02-02T21:25:09.567Z,52.28
2023-02-02T21:27:41.080Z,51.70
2023-02-02T21:30:12.154Z,51.69
2023-02-02T21:32:38.750Z,52.23
2023-02-02T21:35:06.612Z,51.96
2023-02-02T21:37:36.410Z,52.35
2023-02-02T21:40:12.824Z,52.47
2023-02-02T21:42:39.351Z,51.38
2023-02-02T21:45:21.071Z,51.69
2023-02-02T21:47:50.699Z,51.94
2023-02-02T21:50:20.327Z,52.00
2023-02-02T21:52:47.215Z,51.96
2023-02-02T21:55:33.687Z,51.53
2023-02-02T21:58:11.500Z,50.97
2023-02-02T22:00:38.001Z,51.02
2023-02-02T22:03:21.571Z,50.82
2023-02-02T22:05:48.070Z,50.64
2023-02-02T22:08:22.843Z,51.03
2023-02-02T22:10:49.678Z,51.68
2023-02-02T22:13:19.602Z,51.18
2023-02-02T22:15:48.126Z,51.75
2023-02-02T22:18:18.738Z,51.40
2023-02-02T22:20:47.491Z,51.62
2023-02-02T22:23:16.631Z,51.14
2023-02-02T22:25:44.491Z,51.59
2023-02-02T22:28:19.386Z,52.23
2023-02-02T22:30:45.999Z,51.83
2023-02-02T22:33:13.664Z,52.01
2023-02-02T22:35:41.461Z,52.50
2023-02-02T22:38:08.799Z,52.58
2023-02-02T22:40:35.750Z,52.77
2023-02-02T22:43:05.756Z,51.94
2023-02-02T22:45:32.832Z,53.31
2023-02-02T22:47:59.524Z,53.83
2023-02-02T22:50:28.880Z,53.29
2023-02-02T22:52:55.735Z,53.46
2023-02-02T22:55:22.541Z,53.72
2023-02-02T22:57:49.016Z,53.56
2023-02-02T23:00:34.969Z,54.00
2023-02-02T23:03:01.676Z,53.15
2023-02-02T23:05:28.582Z,53.52
2023-02-02T23:07:55.753Z,53.25
2023-02-02T23:10:26.034Z,53.52
2023-02-02T23:12:54.993Z,53.38
2023-02-02T23:15:22.533Z,54.32
2023-02-02T23:17:49.426Z,53.80
2023-02-02T23:20:17.110Z,54.09
2023-02-02T23:22:43.661Z,54.37
2023-02-02T23:25:11.437Z,54.75
2023-02-02T23:27:38.621Z,55.29
2023-02-02T23:30:07.437Z,54.75
2023-02-02T23:32:34.562Z,54.68
2023-02-02T23:35:01.229Z,54.84
2023-02-02T23:37:27.711Z,54.76
2023-02-02T23:39:54.193Z,54.82
2023-02-02T23:42:20.709Z,54.74
2023-02-02T23:44:47.171Z,55.09
2023-02-02T23:47:13.695Z,54.84
2023-02-02T23:49:40.506Z,54.98
2023-02-02T23:52:07.403Z,54.24
2023-02-02T23:54:34.148Z,54.59
2023-02-02T23:57:01.494Z,54.83
2023-02-02T23:59:28.019Z,54.83
